sensor_id;sensor_type;location;lat;lon;timestamp;P1;durP1;ratioP1;P2;durP2;ratioP2
18649;SDS011;9454;53.516;10.478;2022-07-23T00:01:27;5.60;;;0.70;;
18649;SDS011;9454;53.516;10.478;2022-07-23T00:04:30;1.65;;;0.80;;
18649;SDS011;9454;53.516;10.478;2022-07-23T00:07:33;2.17;;;0.80;;
18649;SDS011;9454;53.516;10.478;2022-07-23T00:10:36;1.23;;;0.68;;
18649;SDS011;9454;53.516;10.478;2022-07-23T00:13:38;1.88;;;0.68;;
18649;SDS011;9454;53.516;10.478;2022-07-23T00:16:42;0.77;;;0.52;;
18649;SDS011;9454;53.516;10.478;2022-07-23T00:19:45;2.10;;;0.60;;
18649;SDS011;9454;53.516;10.478;2022-07-23T00:22:48;4.80;;;0.85;;
18649;SDS011;9454;53.516;10.478;2022-07-23T00:25:52;4.50;;;0.73;;
18649;SDS011;9454;53.516;10.478;2022-07-23T00:28:54;2.03;;;0.60;;
18649;SDS011;9454;53.516;10.478;2022-07-23T00:31:59;4.15;;;0.82;;
18649;SDS011;9454;53.516;10.478;2022-07-23T00:35:01;2.35;;;0.80;;
18649;SDS011;9454;53.516;10.478;2022-07-23T00:38:04;3.75;;;0.70;;
18649;SDS011;9454;53.516;10.478;2022-07-23T00:41:07;4.50;;;0.80;;
18649;SDS011;9454;53.516;10.478;2022-07-23T00:44:17;1.67;;;0.70;;
18649;SDS011;9454;53.516;10.478;2022-07-23T00:47:21;1.27;;;0.68;;
18649;SDS011;9454;53.516;10.478;2022-07-23T00:50:24;1.55;;;0.70;;
18649;SDS011;9454;53.516;10.478;2022-07-23T00:53:27;6.10;;;0.80;;
18649;SDS011;9454;53.516;10.478;2022-07-23T00:56:29;1.90;;;0.68;;
18649;SDS011;9454;53.516;10.478;2022-07-23T00:59:32;2.50;;;0.60;;
18649;SDS011;9454;53.516;10.478;2022-07-23T01:02:36;2.13;;;1.35;;
18649;SDS011;9454;53.516;10.478;2022-07-23T01:05:39;2.67;;;0.63;;
18649;SDS011;9454;53.516;10.478;2022-07-23T01:08:43;2.25;;;0.60;;
18649;SDS011;9454;53.516;10.478;2022-07-23T01:11:47;1.00;;;0.80;;
18649;SDS011;9454;53.516;10.478;2022-07-23T01:14:53;2.75;;;0.68;;
18649;SDS011;9454;53.516;10.478;2022-07-23T01:17:57;3.65;;;0.88;;
18649;SDS011;9454;53.516;10.478;2022-07-23T01:21:00;2.13;;;0.70;;
18649;SDS011;9454;53.516;10.478;2022-07-23T01:24:05;2.45;;;1.15;;
18649;SDS011;9454;53.516;10.478;2022-07-23T01:27:10;3.15;;;0.80;;
18649;SDS011;9454;53.516;10.478;2022-07-23T01:30:14;4.30;;;0.73;;
18649;SDS011;9454;53.516;10.478;2022-07-23T01:33:20;2.25;;;0.75;;
18649;SDS011;9454;53.516;10.478;2022-07-23T01:36:23;1.33;;;0.70;;
18649;SDS011;9454;53.516;10.478;2022-07-23T01:39:28;3.45;;;0.80;;
18649;SDS011;9454;53.516;10.478;2022-07-23T01:42:31;2.40;;;0.90;;
18649;SDS011;9454;53.516;10.478;2022-07-23T01:45:36;1.48;;;0.68;;
18649;SDS011;9454;53.516;10.478;2022-07-23T01:48:40;1.63;;;0.80;;
18649;SDS011;9454;53.516;10.478;2022-07-23T01:51:59;2.28;;;1.08;;
18649;SDS011;9454;53.516;10.478;2022-07-23T01:55:08;1.77;;;0.90;;
18649;SDS011;9454;53.516;10.478;2022-07-23T01:58:21;3.25;;;1.00;;
18649;SDS011;9454;53.516;10.478;2022-07-23T02:01:23;3.75;;;0.70;;
18649;SDS011;9454;53.516;10.478;2022-07-23T02:04:27;4.00;;;0.80;;
18649;SDS011;9454;53.516;10.478;2022-07-23T02:07:29;1.80;;;0.73;;
18649;SDS011;9454;53.516;10.478;2022-07-23T02:10:37;3.72;;;0.82;;
18649;SDS011;9454;53.516;10.478;2022-07-23T02:13:39;1.27;;;0.63;;
18649;SDS011;9454;53.516;10.478;2022-07-23T02:16:42;3.30;;;0.85;;
18649;SDS011;9454;53.516;10.478;2022-07-23T02:19:45;3.65;;;0.90;;
18649;SDS011;9454;53.516;10.478;2022-07-23T02:22:48;2.17;;;0.80;;
18649;SDS011;9454;53.516;10.478;2022-07-23T02:25:52;1.80;;;0.73;;
18649;SDS011;9454;53.516;10.478;2022-07-23T02:28:55;3.72;;;0.85;;
18649;SDS011;9454;53.516;10.478;2022-07-23T02:31:58;0.70;;;0.60;;
18649;SDS011;9454;53.516;10.478;2022-07-23T02:35:01;4.03;;;0.70;;
18649;SDS011;9454;53.516;10.478;2022-07-23T02:38:05;2.60;;;1.02;;
18649;SDS011;9454;53.516;10.478;2022-07-23T02:41:09;3.63;;;0.90;;
18649;SDS011;9454;53.516;10.478;2022-07-23T02:44:15;3.33;;;1.00;;
18649;SDS011;9454;53.516;10.478;2022-07-23T02:47:22;6.22;;;0.73;;
18649;SDS011;9454;53.516;10.478;2022-07-23T02:50:26;3.03;;;0.80;;
18649;SDS011;9454;53.516;10.478;2022-07-23T02:53:31;2.42;;;0.80;;
18649;SDS011;9454;53.516;10.478;2022-07-23T02:56:35;2.15;;;0.68;;
18649;SDS011;9454;53.516;10.478;2022-07-23T02:59:38;0.85;;;0.50;;
18649;SDS011;9454;53.516;10.478;2022-07-23T03:02:41;4.65;;;0.80;;
18649;SDS011;9454;53.516;10.478;2022-07-23T03:05:44;4.50;;;0.90;;
18649;SDS011;9454;53.516;10.478;2022-07-23T03:08:47;2.65;;;0.55;;
18649;SDS011;9454;53.516;10.478;2022-07-23T03:11:51;2.97;;;0.70;;
18649;SDS011;9454;53.516;10.478;2022-07-23T03:14:54;2.45;;;0.65;;
18649;SDS011;9454;53.516;10.478;2022-07-23T03:17:57;3.92;;;0.85;;
18649;SDS011;9454;53.516;10.478;2022-07-23T03:21:00;2.55;;;0.82;;
18649;SDS011;9454;53.516;10.478;2022-07-23T03:24:03;3.75;;;0.70;;
18649;SDS011;9454;53.516;10.478;2022-07-23T03:27:08;1.83;;;0.80;;
18649;SDS011;9454;53.516;10.478;2022-07-23T03:30:11;1.88;;;0.63;;
18649;SDS011;9454;53.516;10.478;2022-07-23T03:33:14;3.90;;;0.90;;
18649;SDS011;9454;53.516;10.478;2022-07-23T03:36:17;7.30;;;0.82;;
18649;SDS011;9454;53.516;10.478;2022-07-23T03:39:23;1.35;;;0.70;;
18649;SDS011;9454;53.516;10.478;2022-07-23T03:42:28;1.30;;;0.70;;
18649;SDS011;9454;53.516;10.478;2022-07-23T03:45:31;1.27;;;0.70;;
18649;SDS011;9454;53.516;10.478;2022-07-23T03:48:34;2.15;;;0.60;;
18649;SDS011;9454;53.516;10.478;2022-07-23T03:51:37;2.53;;;0.80;;
18649;SDS011;9454;53.516;10.478;2022-07-23T03:54:39;4.22;;;0.70;;
18649;SDS011;9454;53.516;10.478;2022-07-23T03:57:43;0.80;;;0.60;;
18649;SDS011;9454;53.516;10.478;2022-07-23T04:00:47;2.10;;;0.70;;
18649;SDS011;9454;53.516;10.478;2022-07-23T04:03:50;1.17;;;0.70;;
18649;SDS011;9454;53.516;10.478;2022-07-23T04:06:53;5.07;;;0.73;;
18649;SDS011;9454;53.516;10.478;2022-07-23T04:09:56;3.28;;;0.57;;
18649;SDS011;9454;53.516;10.478;2022-07-23T04:13:00;4.28;;;0.80;;
18649;SDS011;9454;53.516;10.478;2022-07-23T04:16:03;4.55;;;0.70;;
18649;SDS011;9454;53.516;10.478;2022-07-23T04:19:06;2.45;;;0.70;;
18649;SDS011;9454;53.516;10.478;2022-07-23T04:22:20;1.63;;;0.60;;
18649;SDS011;9454;53.516;10.478;2022-07-23T04:25:23;1.85;;;0.52;;
18649;SDS011;9454;53.516;10.478;2022-07-23T04:28:27;2.25;;;0.70;;
18649;SDS011;9454;53.516;10.478;2022-07-23T04:31:30;4.03;;;1.08;;
18649;SDS011;9454;53.516;10.478;2022-07-23T04:34:43;6.03;;;0.63;;
18649;SDS011;9454;53.516;10.478;2022-07-23T04:37:45;1.35;;;0.68;;
18649;SDS011;9454;53.516;10.478;2022-07-23T04:40:50;1.60;;;0.60;;
18649;SDS011;9454;53.516;10.478;2022-07-23T04:43:54;4.10;;;0.65;;
18649;SDS011;9454;53.516;10.478;2022-07-23T04:46:57;4.05;;;0.82;;
18649;SDS011;9454;53.516;10.478;2022-07-23T04:50:00;1.25;;;0.68;;
18649;SDS011;9454;53.516;10.478;2022-07-23T04:53:03;2.83;;;0.80;;
18649;SDS011;9454;53.516;10.478;2022-07-23T04:56:07;4.82;;;0.95;;
18649;SDS011;9454;53.516;10.478;2022-07-23T04:59:11;2.80;;;0.70;;
18649;SDS011;9454;53.516;10.478;2022-07-23T05:02:15;1.52;;;0.80;;
18649;SDS011;9454;53.516;10.478;2022-07-23T05:05:18;5.93;;;1.20;;
18649;SDS011;9454;53.516;10.478;2022-07-23T05:08:20;3.67;;;0.80;;
18649;SDS011;9454;53.516;10.478;2022-07-23T05:11:27;1.90;;;0.77;;
18649;SDS011;9454;53.516;10.478;2022-07-23T05:14:31;2.45;;;0.73;;
18649;SDS011;9454;53.516;10.478;2022-07-23T05:17:34;1.15;;;0.60;;
18649;SDS011;9454;53.516;10.478;2022-07-23T05:20:43;1.40;;;0.75;;
18649;SDS011;9454;53.516;10.478;2022-07-23T05:23:50;3.88;;;0.90;;
18649;SDS011;9454;53.516;10.478;2022-07-23T05:26:53;4.95;;;0.80;;
18649;SDS011;9454;53.516;10.478;2022-07-23T05:30:02;0.57;;;0.57;;
18649;SDS011;9454;53.516;10.478;2022-07-23T05:33:08;1.17;;;1.00;;
18649;SDS011;9454;53.516;10.478;2022-07-23T05:36:13;6.10;;;0.88;;
18649;SDS011;9454;53.516;10.478;2022-07-23T05:39:26;1.42;;;0.60;;
18649;SDS011;9454;53.516;10.478;2022-07-23T05:42:30;1.20;;;0.90;;
18649;SDS011;9454;53.516;10.478;2022-07-23T05:45:34;4.28;;;0.93;;
18649;SDS011;9454;53.516;10.478;2022-07-23T05:48:37;1.38;;;0.75;;
18649;SDS011;9454;53.516;10.478;2022-07-23T05:51:45;1.45;;;0.85;;
18649;SDS011;9454;53.516;10.478;2022-07-23T05:54:51;4.18;;;0.88;;
18649;SDS011;9454;53.516;10.478;2022-07-23T05:57:54;4.55;;;0.90;;
18649;SDS011;9454;53.516;10.478;2022-07-23T06:00:58;2.65;;;1.20;;
18649;SDS011;9454;53.516;10.478;2022-07-23T06:04:03;4.93;;;0.95;;
18649;SDS011;9454;53.516;10.478;2022-07-23T06:07:10;5.90;;;1.05;;
18649;SDS011;9454;53.516;10.478;2022-07-23T06:10:13;1.33;;;0.82;;
18649;SDS011;9454;53.516;10.478;2022-07-23T06:13:17;3.40;;;1.42;;
18649;SDS011;9454;53.516;10.478;2022-07-23T06:16:21;1.85;;;0.80;;
18649;SDS011;9454;53.516;10.478;2022-07-23T06:19:24;2.75;;;1.10;;
18649;SDS011;9454;53.516;10.478;2022-07-23T06:22:28;3.15;;;1.20;;
18649;SDS011;9454;53.516;10.478;2022-07-23T06:25:30;1.83;;;1.02;;
18649;SDS011;9454;53.516;10.478;2022-07-23T06:28:33;3.58;;;1.08;;
18649;SDS011;9454;53.516;10.478;2022-07-23T06:31:37;5.03;;;1.35;;
18649;SDS011;9454;53.516;10.478;2022-07-23T06:34:40;3.45;;;1.40;;
18649;SDS011;9454;53.516;10.478;2022-07-23T06:37:48;4.80;;;1.70;;
18649;SDS011;9454;53.516;10.478;2022-07-23T06:40:51;2.70;;;1.25;;
18649;SDS011;9454;53.516;10.478;2022-07-23T06:43:54;3.35;;;1.58;;
18649;SDS011;9454;53.516;10.478;2022-07-23T06:46:58;9.27;;;1.67;;
18649;SDS011;9454;53.516;10.478;2022-07-23T06:50:01;2.92;;;1.23;;
18649;SDS011;9454;53.516;10.478;2022-07-23T06:53:04;8.85;;;1.27;;
18649;SDS011;9454;53.516;10.478;2022-07-23T06:56:06;3.00;;;1.50;;
18649;SDS011;9454;53.516;10.478;2022-07-23T06:59:09;2.95;;;1.23;;
18649;SDS011;9454;53.516;10.478;2022-07-23T07:02:14;2.50;;;1.42;;
18649;SDS011;9454;53.516;10.478;2022-07-23T07:05:17;4.65;;;1.40;;
18649;SDS011;9454;53.516;10.478;2022-07-23T07:08:19;7.47;;;1.50;;
18649;SDS011;9454;53.516;10.478;2022-07-23T07:11:22;2.10;;;0.93;;
18649;SDS011;9454;53.516;10.478;2022-07-23T07:14:26;5.75;;;1.23;;
18649;SDS011;9454;53.516;10.478;2022-07-23T07:17:30;0.93;;;0.70;;
18649;SDS011;9454;53.516;10.478;2022-07-23T07:20:33;4.32;;;0.90;;
18649;SDS011;9454;53.516;10.478;2022-07-23T07:23:36;5.43;;;1.00;;
18649;SDS011;9454;53.516;10.478;2022-07-23T07:26:40;6.55;;;1.10;;
18649;SDS011;9454;53.516;10.478;2022-07-23T07:29:43;2.00;;;0.80;;
18649;SDS011;9454;53.516;10.478;2022-07-23T07:32:47;3.63;;;0.90;;
18649;SDS011;9454;53.516;10.478;2022-07-23T07:35:58;2.58;;;0.70;;
18649;SDS011;9454;53.516;10.478;2022-07-23T07:39:01;1.42;;;0.80;;
18649;SDS011;9454;53.516;10.478;2022-07-23T07:42:05;2.22;;;0.70;;
18649;SDS011;9454;53.516;10.478;2022-07-23T07:45:08;4.20;;;1.10;;
18649;SDS011;9454;53.516;10.478;2022-07-23T07:48:12;0.93;;;0.88;;
18649;SDS011;9454;53.516;10.478;2022-07-23T07:51:15;3.53;;;0.60;;
18649;SDS011;9454;53.516;10.478;2022-07-23T07:54:18;2.30;;;1.23;;
18649;SDS011;9454;53.516;10.478;2022-07-23T07:57:21;1.50;;;0.70;;
18649;SDS011;9454;53.516;10.478;2022-07-23T08:00:24;3.20;;;1.30;;
18649;SDS011;9454;53.516;10.478;2022-07-23T08:03:29;1.67;;;0.70;;
18649;SDS011;9454;53.516;10.478;2022-07-23T08:06:32;1.25;;;0.63;;
18649;SDS011;9454;53.516;10.478;2022-07-23T08:09:34;4.05;;;0.60;;
18649;SDS011;9454;53.516;10.478;2022-07-23T08:12:38;1.02;;;0.60;;
18649;SDS011;9454;53.516;10.478;2022-07-23T08:15:43;0.77;;;0.57;;
18649;SDS011;9454;53.516;10.478;2022-07-23T08:18:48;3.63;;;0.70;;
18649;SDS011;9454;53.516;10.478;2022-07-23T08:21:51;2.17;;;0.70;;
18649;SDS011;9454;53.516;10.478;2022-07-23T08:24:54;0.68;;;0.43;;
18649;SDS011;9454;53.516;10.478;2022-07-23T08:27:57;0.50;;;0.50;;
18649;SDS011;9454;53.516;10.478;2022-07-23T08:31:00;0.85;;;0.52;;
18649;SDS011;9454;53.516;10.478;2022-07-23T08:34:04;2.38;;;0.60;;
18649;SDS011;9454;53.516;10.478;2022-07-23T08:37:07;2.67;;;0.57;;
18649;SDS011;9454;53.516;10.478;2022-07-23T08:40:10;0.45;;;0.45;;
18649;SDS011;9454;53.516;10.478;2022-07-23T08:43:13;2.72;;;0.40;;
18649;SDS011;9454;53.516;10.478;2022-07-23T08:46:16;1.17;;;0.40;;
18649;SDS011;9454;53.516;10.478;2022-07-23T08:49:23;2.40;;;0.43;;
18649;SDS011;9454;53.516;10.478;2022-07-23T08:52:26;3.05;;;0.40;;
18649;SDS011;9454;53.516;10.478;2022-07-23T08:55:29;1.60;;;0.47;;
18649;SDS011;9454;53.516;10.478;2022-07-23T08:58:31;1.02;;;0.40;;
18649;SDS011;9454;53.516;10.478;2022-07-23T09:01:34;0.73;;;0.30;;
18649;SDS011;9454;53.516;10.478;2022-07-23T09:04:39;0.85;;;0.50;;
18649;SDS011;9454;53.516;10.478;2022-07-23T09:11:04;3.63;;;0.50;;
18649;SDS011;9454;53.516;10.478;2022-07-23T09:14:07;2.95;;;0.40;;
18649;SDS011;9454;53.516;10.478;2022-07-23T09:17:11;1.00;;;0.47;;
18649;SDS011;9454;53.516;10.478;2022-07-23T09:20:16;0.90;;;0.40;;
18649;SDS011;9454;53.516;10.478;2022-07-23T09:23:19;1.35;;;0.30;;
18649;SDS011;9454;53.516;10.478;2022-07-23T09:26:30;0.40;;;0.40;;
18649;SDS011;9454;53.516;10.478;2022-07-23T09:29:33;0.38;;;0.38;;
18649;SDS011;9454;53.516;10.478;2022-07-23T09:32:36;3.60;;;0.38;;
18649;SDS011;9454;53.516;10.478;2022-07-23T09:35:46;0.80;;;0.40;;
18649;SDS011;9454;53.516;10.478;2022-07-23T09:38:50;0.95;;;0.40;;
18649;SDS011;9454;53.516;10.478;2022-07-23T09:41:53;4.55;;;0.60;;
18649;SDS011;9454;53.516;10.478;2022-07-23T09:44:56;2.40;;;0.50;;
18649;SDS011;9454;53.516;10.478;2022-07-23T09:48:09;0.32;;;0.30;;
18649;SDS011;9454;53.516;10.478;2022-07-23T09:51:13;0.30;;;0.22;;
18649;SDS011;9454;53.516;10.478;2022-07-23T09:54:25;1.98;;;0.38;;
18649;SDS011;9454;53.516;10.478;2022-07-23T09:57:29;1.48;;;0.32;;
18649;SDS011;9454;53.516;10.478;2022-07-23T10:00:33;2.08;;;0.50;;
18649;SDS011;9454;53.516;10.478;2022-07-23T10:03:36;0.63;;;0.38;;
18649;SDS011;9454;53.516;10.478;2022-07-23T10:07:09;0.85;;;0.25;;
18649;SDS011;9454;53.516;10.478;2022-07-23T10:10:42;0.28;;;0.28;;
18649;SDS011;9454;53.516;10.478;2022-07-23T10:14:10;2.00;;;0.38;;
18649;SDS011;9454;53.516;10.478;2022-07-23T10:17:27;0.47;;;0.35;;
18649;SDS011;9454;53.516;10.478;2022-07-23T10:20:29;0.82;;;0.30;;
18649;SDS011;9454;53.516;10.478;2022-07-23T10:23:35;0.20;;;0.20;;
18649;SDS011;9454;53.516;10.478;2022-07-23T10:26:41;1.02;;;0.60;;
18649;SDS011;9454;53.516;10.478;2022-07-23T10:29:47;0.40;;;0.30;;
18649;SDS011;9454;53.516;10.478;2022-07-23T10:32:56;1.23;;;0.50;;
18649;SDS011;9454;53.516;10.478;2022-07-23T10:36:03;0.88;;;0.40;;
18649;SDS011;9454;53.516;10.478;2022-07-23T10:39:13;2.53;;;0.50;;
18649;SDS011;9454;53.516;10.478;2022-07-23T10:42:17;0.47;;;0.43;;
18649;SDS011;9454;53.516;10.478;2022-07-23T10:45:27;0.50;;;0.50;;
18649;SDS011;9454;53.516;10.478;2022-07-23T10:48:30;0.50;;;0.50;;
18649;SDS011;9454;53.516;10.478;2022-07-23T10:51:33;0.57;;;0.40;;
18649;SDS011;9454;53.516;10.478;2022-07-23T10:54:37;0.80;;;0.40;;
18649;SDS011;9454;53.516;10.478;2022-07-23T10:57:47;0.77;;;0.38;;
18649;SDS011;9454;53.516;10.478;2022-07-23T11:00:50;0.60;;;0.50;;
18649;SDS011;9454;53.516;10.478;2022-07-23T11:03:55;1.23;;;0.40;;
18649;SDS011;9454;53.516;10.478;2022-07-23T11:07:08;0.50;;;0.50;;
18649;SDS011;9454;53.516;10.478;2022-07-23T11:10:26;0.40;;;0.40;;
18649;SDS011;9454;53.516;10.478;2022-07-23T11:13:41;4.57;;;0.60;;
18649;SDS011;9454;53.516;10.478;2022-07-23T11:16:46;0.40;;;0.40;;
18649;SDS011;9454;53.516;10.478;2022-07-23T11:23:10;0.73;;;0.40;;
18649;SDS011;9454;53.516;10.478;2022-07-23T11:26:24;0.73;;;0.40;;
18649;SDS011;9454;53.516;10.478;2022-07-23T11:29:46;0.40;;;0.38;;
18649;SDS011;9454;53.516;10.478;2022-07-23T11:32:50;0.45;;;0.40;;
18649;SDS011;9454;53.516;10.478;2022-07-23T11:36:00;5.72;;;0.50;;
18649;SDS011;9454;53.516;10.478;2022-07-23T11:39:07;1.70;;;0.35;;
18649;SDS011;9454;53.516;10.478;2022-07-23T11:42:16;1.90;;;0.32;;
18649;SDS011;9454;53.516;10.478;2022-07-23T11:45:20;1.20;;;0.50;;
18649;SDS011;9454;53.516;10.478;2022-07-23T11:48:23;0.70;;;0.40;;
18649;SDS011;9454;53.516;10.478;2022-07-23T11:51:27;1.40;;;0.40;;
18649;SDS011;9454;53.516;10.478;2022-07-23T11:54:29;1.42;;;0.40;;
18649;SDS011;9454;53.516;10.478;2022-07-23T11:57:42;1.15;;;0.40;;
18649;SDS011;9454;53.516;10.478;2022-07-23T12:00:44;0.52;;;0.40;;
18649;SDS011;9454;53.516;10.478;2022-07-23T12:03:48;3.47;;;0.55;;
18649;SDS011;9454;53.516;10.478;2022-07-23T12:06:52;3.60;;;0.45;;
18649;SDS011;9454;53.516;10.478;2022-07-23T12:09:55;0.43;;;0.43;;
18649;SDS011;9454;53.516;10.478;2022-07-23T12:13:00;1.85;;;0.40;;
18649;SDS011;9454;53.516;10.478;2022-07-23T12:16:03;0.40;;;0.32;;
18649;SDS011;9454;53.516;10.478;2022-07-23T12:19:06;0.40;;;0.40;;
18649;SDS011;9454;53.516;10.478;2022-07-23T12:22:11;1.30;;;0.50;;
18649;SDS011;9454;53.516;10.478;2022-07-23T12:25:16;0.30;;;0.30;;
18649;SDS011;9454;53.516;10.478;2022-07-23T12:28:22;0.43;;;0.43;;
18649;SDS011;9454;53.516;10.478;2022-07-23T12:31:25;2.17;;;0.30;;
18649;SDS011;9454;53.516;10.478;2022-07-23T12:34:28;1.02;;;0.30;;
18649;SDS011;9454;53.516;10.478;2022-07-23T12:37:31;0.30;;;0.30;;
18649;SDS011;9454;53.516;10.478;2022-07-23T12:40:35;1.88;;;0.70;;
18649;SDS011;9454;53.516;10.478;2022-07-23T12:43:41;1.40;;;0.40;;
18649;SDS011;9454;53.516;10.478;2022-07-23T12:46:43;1.30;;;0.55;;
18649;SDS011;9454;53.516;10.478;2022-07-23T12:49:51;1.58;;;0.40;;
18649;SDS011;9454;53.516;10.478;2022-07-23T12:53:00;0.43;;;0.40;;
18649;SDS011;9454;53.516;10.478;2022-07-23T12:56:05;2.15;;;0.50;;
18649;SDS011;9454;53.516;10.478;2022-07-23T12:59:17;0.43;;;0.38;;
18649;SDS011;9454;53.516;10.478;2022-07-23T13:02:20;0.30;;;0.30;;
18649;SDS011;9454;53.516;10.478;2022-07-23T13:05:22;1.25;;;0.40;;
18649;SDS011;9454;53.516;10.478;2022-07-23T13:08:26;0.73;;;0.50;;
18649;SDS011;9454;53.516;10.478;2022-07-23T13:11:29;1.58;;;0.43;;
18649;SDS011;9454;53.516;10.478;2022-07-23T13:14:33;1.50;;;0.40;;
18649;SDS011;9454;53.516;10.478;2022-07-23T13:17:37;5.20;;;0.65;;
18649;SDS011;9454;53.516;10.478;2022-07-23T13:20:40;0.77;;;0.47;;
18649;SDS011;9454;53.516;10.478;2022-07-23T13:23:43;2.35;;;0.60;;
18649;SDS011;9454;53.516;10.478;2022-07-23T13:26:45;2.13;;;0.60;;
18649;SDS011;9454;53.516;10.478;2022-07-23T13:29:52;1.60;;;0.60;;
18649;SDS011;9454;53.516;10.478;2022-07-23T13:33:16;1.20;;;0.57;;
18649;SDS011;9454;53.516;10.478;2022-07-23T13:36:19;3.05;;;0.50;;
18649;SDS011;9454;53.516;10.478;2022-07-23T13:39:22;2.33;;;0.50;;
18649;SDS011;9454;53.516;10.478;2022-07-23T13:42:25;1.65;;;0.50;;
18649;SDS011;9454;53.516;10.478;2022-07-23T13:45:31;3.00;;;0.50;;
18649;SDS011;9454;53.516;10.478;2022-07-23T13:48:34;0.88;;;0.40;;
18649;SDS011;9454;53.516;10.478;2022-07-23T13:51:37;1.58;;;0.60;;
18649;SDS011;9454;53.516;10.478;2022-07-23T13:54:40;0.50;;;0.50;;
18649;SDS011;9454;53.516;10.478;2022-07-23T13:57:43;1.02;;;0.80;;
18649;SDS011;9454;53.516;10.478;2022-07-23T14:00:49;4.38;;;0.52;;
18649;SDS011;9454;53.516;10.478;2022-07-23T14:03:54;0.32;;;0.32;;
18649;SDS011;9454;53.516;10.478;2022-07-23T14:06:57;1.20;;;0.50;;
18649;SDS011;9454;53.516;10.478;2022-07-23T14:09:59;0.88;;;0.60;;
18649;SDS011;9454;53.516;10.478;2022-07-23T14:13:03;1.55;;;0.68;;
18649;SDS011;9454;53.516;10.478;2022-07-23T14:16:07;3.13;;;1.13;;
18649;SDS011;9454;53.516;10.478;2022-07-23T14:19:10;1.55;;;0.50;;
18649;SDS011;9454;53.516;10.478;2022-07-23T14:22:12;3.17;;;0.60;;
18649;SDS011;9454;53.516;10.478;2022-07-23T14:25:16;0.73;;;0.40;;
18649;SDS011;9454;53.516;10.478;2022-07-23T14:28:18;1.55;;;0.50;;
18649;SDS011;9454;53.516;10.478;2022-07-23T14:31:23;1.52;;;0.50;;
18649;SDS011;9454;53.516;10.478;2022-07-23T14:34:26;2.25;;;0.70;;
18649;SDS011;9454;53.516;10.478;2022-07-23T14:37:29;0.57;;;0.50;;
18649;SDS011;9454;53.516;10.478;2022-07-23T14:40:32;1.77;;;0.60;;
18649;SDS011;9454;53.516;10.478;2022-07-23T14:43:35;0.60;;;0.40;;
18649;SDS011;9454;53.516;10.478;2022-07-23T14:46:40;1.27;;;0.40;;
18649;SDS011;9454;53.516;10.478;2022-07-23T14:49:44;2.72;;;0.68;;
18649;SDS011;9454;53.516;10.478;2022-07-23T14:52:49;3.05;;;0.50;;
18649;SDS011;9454;53.516;10.478;2022-07-23T14:55:52;2.03;;;0.80;;
18649;SDS011;9454;53.516;10.478;2022-07-23T14:58:56;1.20;;;0.60;;
18649;SDS011;9454;53.516;10.478;2022-07-23T15:02:00;2.10;;;0.68;;
18649;SDS011;9454;53.516;10.478;2022-07-23T15:05:03;0.77;;;0.40;;
18649;SDS011;9454;53.516;10.478;2022-07-23T15:08:07;0.90;;;0.50;;
18649;SDS011;9454;53.516;10.478;2022-07-23T15:11:11;3.90;;;0.50;;
18649;SDS011;9454;53.516;10.478;2022-07-23T15:14:16;0.47;;;0.40;;
18649;SDS011;9454;53.516;10.478;2022-07-23T15:17:30;1.20;;;0.40;;
18649;SDS011;9454;53.516;10.478;2022-07-23T15:20:32;2.30;;;0.65;;
18649;SDS011;9454;53.516;10.478;2022-07-23T15:23:41;0.43;;;0.40;;
18649;SDS011;9454;53.516;10.478;2022-07-23T15:26:45;3.72;;;0.70;;
18649;SDS011;9454;53.516;10.478;2022-07-23T15:29:49;2.65;;;0.40;;
18649;SDS011;9454;53.516;10.478;2022-07-23T15:32:54;1.55;;;0.57;;
18649;SDS011;9454;53.516;10.478;2022-07-23T15:35:56;1.05;;;0.75;;
18649;SDS011;9454;53.516;10.478;2022-07-23T15:39:00;3.08;;;0.60;;
18649;SDS011;9454;53.516;10.478;2022-07-23T15:42:03;2.15;;;0.50;;
18649;SDS011;9454;53.516;10.478;2022-07-23T15:45:14;1.08;;;0.70;;
18649;SDS011;9454;53.516;10.478;2022-07-23T15:48:20;1.65;;;0.70;;
18649;SDS011;9454;53.516;10.478;2022-07-23T15:51:23;1.02;;;0.57;;
18649;SDS011;9454;53.516;10.478;2022-07-23T15:54:26;2.25;;;0.43;;
18649;SDS011;9454;53.516;10.478;2022-07-23T15:57:29;1.58;;;0.63;;
18649;SDS011;9454;53.516;10.478;2022-07-23T16:00:33;1.05;;;0.40;;
18649;SDS011;9454;53.516;10.478;2022-07-23T16:03:37;0.60;;;0.60;;
18649;SDS011;9454;53.516;10.478;2022-07-23T16:06:40;0.85;;;0.50;;
18649;SDS011;9454;53.516;10.478;2022-07-23T16:09:43;0.73;;;0.40;;
18649;SDS011;9454;53.516;10.478;2022-07-23T16:12:46;2.50;;;0.60;;
18649;SDS011;9454;53.516;10.478;2022-07-23T16:15:49;0.55;;;0.40;;
18649;SDS011;9454;53.516;10.478;2022-07-23T16:18:53;1.23;;;0.60;;
18649;SDS011;9454;53.516;10.478;2022-07-23T16:21:56;0.68;;;0.50;;
18649;SDS011;9454;53.516;10.478;2022-07-23T16:24:59;1.45;;;0.50;;
18649;SDS011;9454;53.516;10.478;2022-07-23T16:28:02;1.08;;;0.57;;
18649;SDS011;9454;53.516;10.478;2022-07-23T16:31:04;0.63;;;0.50;;
18649;SDS011;9454;53.516;10.478;2022-07-23T16:34:09;1.42;;;0.55;;
18649;SDS011;9454;53.516;10.478;2022-07-23T16:37:12;1.23;;;0.40;;
18649;SDS011;9454;53.516;10.478;2022-07-23T16:40:14;2.28;;;0.55;;
18649;SDS011;9454;53.516;10.478;2022-07-23T16:43:17;0.40;;;0.40;;
18649;SDS011;9454;53.516;10.478;2022-07-23T16:46:20;0.82;;;0.50;;
18649;SDS011;9454;53.516;10.478;2022-07-23T16:49:24;2.60;;;0.50;;
18649;SDS011;9454;53.516;10.478;2022-07-23T16:52:27;2.05;;;0.40;;
18649;SDS011;9454;53.516;10.478;2022-07-23T16:55:30;0.50;;;0.40;;
18649;SDS011;9454;53.516;10.478;2022-07-23T16:58:33;3.88;;;0.70;;
18649;SDS011;9454;53.516;10.478;2022-07-23T17:01:35;0.75;;;0.50;;
18649;SDS011;9454;53.516;10.478;2022-07-23T17:04:40;1.33;;;0.75;;
18649;SDS011;9454;53.516;10.478;2022-07-23T17:07:42;2.97;;;0.52;;
18649;SDS011;9454;53.516;10.478;2022-07-23T17:10:45;0.80;;;0.50;;
18649;SDS011;9454;53.516;10.478;2022-07-23T17:13:48;1.00;;;0.50;;
18649;SDS011;9454;53.516;10.478;2022-07-23T17:16:51;6.30;;;0.60;;
18649;SDS011;9454;53.516;10.478;2022-07-23T17:19:55;2.67;;;0.80;;
18649;SDS011;9454;53.516;10.478;2022-07-23T17:22:58;9.05;;;0.47;;
18649;SDS011;9454;53.516;10.478;2022-07-23T17:26:00;3.08;;;0.73;;
18649;SDS011;9454;53.516;10.478;2022-07-23T17:29:03;1.00;;;0.60;;
18649;SDS011;9454;53.516;10.478;2022-07-23T17:32:06;1.30;;;0.40;;
18649;SDS011;9454;53.516;10.478;2022-07-23T17:35:10;1.08;;;0.50;;
18649;SDS011;9454;53.516;10.478;2022-07-23T17:38:13;2.95;;;0.50;;
18649;SDS011;9454;53.516;10.478;2022-07-23T17:41:18;6.95;;;0.60;;
18649;SDS011;9454;53.516;10.478;2022-07-23T17:44:21;1.92;;;0.50;;
18649;SDS011;9454;53.516;10.478;2022-07-23T17:47:24;2.10;;;0.50;;
18649;SDS011;9454;53.516;10.478;2022-07-23T17:50:28;3.22;;;0.60;;
18649;SDS011;9454;53.516;10.478;2022-07-23T17:53:31;0.50;;;0.50;;
18649;SDS011;9454;53.516;10.478;2022-07-23T17:56:33;0.50;;;0.40;;
18649;SDS011;9454;53.516;10.478;2022-07-23T17:59:36;1.52;;;0.70;;
18649;SDS011;9454;53.516;10.478;2022-07-23T18:02:39;0.60;;;0.50;;
18649;SDS011;9454;53.516;10.478;2022-07-23T18:05:44;1.90;;;0.68;;
18649;SDS011;9454;53.516;10.478;2022-07-23T18:08:46;2.72;;;0.65;;
18649;SDS011;9454;53.516;10.478;2022-07-23T18:11:50;4.05;;;0.60;;
18649;SDS011;9454;53.516;10.478;2022-07-23T18:14:53;0.70;;;0.60;;
18649;SDS011;9454;53.516;10.478;2022-07-23T18:17:56;1.60;;;0.60;;
18649;SDS011;9454;53.516;10.478;2022-07-23T18:21:00;1.50;;;0.40;;
18649;SDS011;9454;53.516;10.478;2022-07-23T18:24:03;3.08;;;0.70;;
18649;SDS011;9454;53.516;10.478;2022-07-23T18:27:06;2.15;;;0.40;;
18649;SDS011;9454;53.516;10.478;2022-07-23T18:30:09;0.40;;;0.40;;
18649;SDS011;9454;53.516;10.478;2022-07-23T18:33:12;0.57;;;0.50;;
18649;SDS011;9454;53.516;10.478;2022-07-23T18:36:16;1.13;;;0.50;;
18649;SDS011;9454;53.516;10.478;2022-07-23T18:39:19;0.40;;;0.40;;